Time;durP1;ratioP1;P1;durP2;ratioP2;P2;SDS_P1;SDS_P2;PMS_P1;PMS_P2;Temp;Humidity;BMP_temperature;BMP_pressure;BME280_temperature;BME280_humidity;BME280_pressure;Samples;Min_cycle;Max_cycle;Signal;HPM_P1;HPM_P2
2023/04/10 00:02:02;;;;;;;70.50;34.90;;;;;;;;;;106080;1269;25360;-81
2023/04/10 00:04:29;;;;;;;69.30;34.50;;;;;;;;;;102343;1286;5078293;-85
2023/04/10 00:06:58;;;;;;;67.20;33.00;;;;;;;;;;106309;1286;22530;-81
2023/04/10 00:09:28;;;;;;;69.40;34.10;;;;;;;;;;106392;1286;25338;-81
2023/04/10 00:11:57;;;;;;;71.40;34.10;;;;;;;;;;106312;1269;24240;-81
2023/04/10 00:17:14;;;;;;;;;;;;;;;;;;;;;
2023/04/10 00:19:55;;;;;;;63.00;31.20;;;;;;;;;;106343;1285;25321;-79
2023/04/10 00:22:42;;;;;;;63.60;32.00;;;;;;;;;;106133;1285;22528;-80
2023/04/10 00:25:11;;;;;;;60.90;31.70;;;;;;;;;;106548;1285;22529;-82
2023/04/10 00:31:34;;;;;;;54.00;29.00;;;;;;;;;;105887;1270;24378;-83
2023/04/10 00:37:32;;;;;;;55.90;28.00;;;;;;;;;;106402;1285;22960;-84
2023/04/10 00:40:03;;;;;;;55.50;28.20;;;;;;;;;;106203;1285;22561;-81
2023/04/10 00:42:32;;;;;;;55.00;27.70;;;;;;;;;;106343;1266;24231;-79
2023/04/10 00:45:02;;;;;;;54.90;28.00;;;;;;;;;;106417;1285;22582;-84
2023/04/10 00:47:29;;;;;;;54.00;27.90;;;;;;;;;;106561;1285;24915;-79
2023/04/10 00:49:57;;;;;;;43.40;23.50;;;;;;;;;;109875;1285;22934;-78
2023/04/10 00:52:25;;;;;;;40.20;22.20;;;;;;;;;;110055;1265;22388;-78
2023/04/10 00:54:51;;;;;;;39.60;21.40;;;;;;;;;;109918;1284;22145;-78
2023/04/10 00:57:18;;;;;;;42.40;22.50;;;;;;;;;;110006;1284;22915;-78
2023/04/10 00:59:47;;;;;;;40.80;22.40;;;;;;;;;;109911;1284;22164;-78
2023/04/10 01:02:13;;;;;;;44.30;23.30;;;;;;;;;;109988;1262;22845;-78
2023/04/10 01:04:41;;;;;;;56.40;29.90;;;;;;;;;;109872;1285;22852;-78
2023/04/10 01:07:11;;;;;;;54.70;28.60;;;;;;;;;;109866;1285;22322;-79
2023/04/10 01:13:42;;;;;;;55.00;28.30;;;;;;;;;;109866;1266;21916;-78
2023/04/10 01:16:19;;;;;;;59.20;29.50;;;;;;;;;;109851;1285;22771;-78
2023/04/10 01:24:56;;;;;;;59.80;30.50;;;;;;;;;;110873;1269;22368;-78
2023/04/10 01:27:35;;;;;;;63.40;32.40;;;;;;;;;;110435;1276;23264;-79
2023/04/10 01:30:03;;;;;;;67.30;34.70;;;;;;;;;;110579;1276;22106;-78
2023/04/10 01:32:32;;;;;;;62.60;33.00;;;;;;;;;;110476;1257;22936;-79
2023/04/10 01:35:03;;;;;;;60.60;32.40;;;;;;;;;;110941;1269;22189;-78
2023/04/10 01:37:30;;;;;;;59.00;30.70;;;;;;;;;;110581;1276;22164;-78
2023/04/10 01:40:05;;;;;;;61.80;31.40;;;;;;;;;;110391;1276;22071;-78
2023/04/10 01:43:39;;;;;;;57.70;30.20;;;;;;;;;;110203;1256;22159;-79
2023/04/10 01:46:06;;;;;;;56.90;30.60;;;;;;;;;;110065;1279;23365;-79
2023/04/10 01:48:59;;;;;;;60.50;33.00;;;;;;;;;;110313;1276;22991;-79
2023/04/10 01:51:26;;;;;;;61.00;32.20;;;;;;;;;;110545;1276;22068;-78
2023/04/10 01:53:53;;;;;;;59.80;30.60;;;;;;;;;;110477;1257;23011;-78
2023/04/10 01:56:24;;;;;;;56.90;29.60;;;;;;;;;;110389;1277;22157;-78
2023/04/10 01:58:51;;;;;;;52.10;29.30;;;;;;;;;;110485;1277;21983;-78
2023/04/10 02:01:19;;;;;;;53.70;28.70;;;;;;;;;;110450;1277;22414;-78
2023/04/10 02:03:46;;;;;;;53.40;29.40;;;;;;;;;;110508;1259;22115;-78
2023/04/10 02:06:17;;;;;;;55.00;29.70;;;;;;;;;;110284;1277;22902;-78
2023/04/10 02:08:56;;;;;;;54.20;29.60;;;;;;;;;;110471;1277;23101;-78
2023/04/10 02:11:32;;;;;;;53.60;28.50;;;;;;;;;;110382;1277;22724;-78
2023/04/10 02:14:02;;;;;;;50.80;27.30;;;;;;;;;;110280;1259;22134;-78
2023/04/10 02:16:30;;;;;;;47.20;26.20;;;;;;;;;;110435;1276;22390;-78
2023/04/10 02:18:59;;;;;;;41.10;23.30;;;;;;;;;;110151;1277;22167;-78
2023/04/10 02:21:27;;;;;;;43.60;24.20;;;;;;;;;;110220;1278;22164;-78
2023/04/10 02:24:00;;;;;;;44.80;23.80;;;;;;;;;;110244;1254;22968;-78
2023/04/10 02:26:35;;;;;;;40.60;23.40;;;;;;;;;;110185;1277;22176;-78
2023/04/10 02:29:01;;;;;;;40.10;21.40;;;;;;;;;;110326;1278;22109;-77
2023/04/10 02:31:28;;;;;;;43.00;22.80;;;;;;;;;;110375;1278;22128;-78
2023/04/10 02:33:57;;;;;;;43.40;22.80;;;;;;;;;;110177;1254;22325;-78
2023/04/10 02:36:25;;;;;;;44.30;22.00;;;;;;;;;;110298;1277;22193;-78
2023/04/10 02:38:55;;;;;;;47.00;23.90;;;;;;;;;;110295;1277;22122;-78
2023/04/10 02:41:23;;;;;;;44.30;24.40;;;;;;;;;;110393;1277;22822;-78
2023/04/10 02:43:51;;;;;;;41.80;22.80;;;;;;;;;;110335;1277;22849;-78
2023/04/10 02:49:16;;;;;;;42.40;22.60;;;;;;;;;;110505;1259;23032;-78
2023/04/10 02:51:44;;;;;;;39.70;21.40;;;;;;;;;;110628;1256;22112;-78
2023/04/10 02:54:11;;;;;;;37.30;19.80;;;;;;;;;;110644;1273;21987;-78
2023/04/10 02:56:38;;;;;;;42.90;22.50;;;;;;;;;;110689;1259;21710;-78
2023/04/10 02:59:09;;;;;;;44.10;23.60;;;;;;;;;;110520;1273;22942;-78
2023/04/10 03:01:38;;;;;;;50.70;26.60;;;;;;;;;;110541;1257;22149;-77
2023/04/10 03:07:58;;;;;;;40.60;23.10;;;;;;;;;;110634;1253;22185;-77
2023/04/10 03:10:25;;;;;;;43.10;24.30;;;;;;;;;;110468;1275;22099;-77
2023/04/10 03:12:52;;;;;;;46.80;23.10;;;;;;;;;;110533;1275;22148;-77
2023/04/10 03:15:19;;;;;;;37.90;20.80;;;;;;;;;;110612;1275;22119;-77
2023/04/10 03:17:46;;;;;;;43.60;22.20;;;;;;;;;;110892;1255;22113;-77
2023/04/10 03:20:13;;;;;;;38.40;21.00;;;;;;;;;;110605;1274;23057;-78
2023/04/10 03:22:39;;;;;;;38.60;21.30;;;;;;;;;;110575;1274;22452;-77
2023/04/10 03:25:33;;;;;;;45.80;24.10;;;;;;;;;;110421;1275;22149;-77
2023/04/10 03:28:20;;;;;;;43.50;22.30;;;;;;;;;;110953;1256;22156;-77
2023/04/10 03:30:47;;;;;;;41.20;22.70;;;;;;;;;;110465;1275;23049;-78
2023/04/10 03:33:14;;;;;;;39.60;22.70;;;;;;;;;;110475;1275;22800;-77
2023/04/10 03:35:41;;;;;;;40.90;23.50;;;;;;;;;;110581;1275;22118;-78
2023/04/10 03:38:08;;;;;;;46.60;24.10;;;;;;;;;;111278;1254;22133;-78
2023/04/10 03:40:36;;;;;;;42.60;23.20;;;;;;;;;;110466;1273;22106;-78
2023/04/10 03:43:04;;;;;;;46.70;24.50;;;;;;;;;;110650;1272;22096;-77
2023/04/10 03:45:33;;;;;;;46.10;24.30;;;;;;;;;;110566;1275;22855;-78
2023/04/10 03:48:31;;;;;;;;;;;;;;;;;;;;;
2023/04/10 03:51:36;;;;;;;39.50;21.60;;;;;;;;;;110096;1281;22905;-78
2023/04/10 03:54:02;;;;;;;38.30;20.60;;;;;;;;;;110121;1280;22313;-78
2023/04/10 03:59:31;;;;;;;48.00;23.20;;;;;;;;;;111384;1254;22104;-78
2023/04/10 04:01:58;;;;;;;39.40;23.00;;;;;;;;;;110685;1273;22321;-78
2023/04/10 04:04:26;;;;;;;41.00;21.50;;;;;;;;;;110716;1272;22030;-78
2023/04/10 04:07:40;;;;;;;42.90;23.70;;;;;;;;;;110485;1254;22168;-78
2023/04/10 04:10:45;;;;;;;41.50;23.00;;;;;;;;;;110022;1283;22284;-77
2023/04/10 04:16:35;;;;;;;40.40;21.90;;;;;;;;;;110615;1274;22055;-77
2023/04/10 04:19:50;;;;;;;39.10;21.50;;;;;;;;;;110286;1263;22159;-78
2023/04/10 04:22:45;;;;;;;37.90;20.20;;;;;;;;;;110318;1278;22139;-78
2023/04/10 04:25:33;;;;;;;35.40;19.70;;;;;;;;;;110349;1273;22833;-78
2023/04/10 04:28:06;;;;;;;40.10;22.10;;;;;;;;;;110688;1249;22242;-78
2023/04/10 04:30:54;;;;;;;38.30;21.20;;;;;;;;;;110697;1273;22284;-78
2023/04/10 04:34:42;;;;;;;36.50;19.60;;;;;;;;;;110442;1277;22153;-77
2023/04/10 04:37:35;;;;;;;37.80;19.30;;;;;;;;;;110608;1274;22277;-78
2023/04/10 04:40:28;;;;;;;35.20;19.30;;;;;;;;;;110433;1259;22407;-78
2023/04/10 04:43:01;;;;;;;38.20;20.60;;;;;;;;;;110667;1274;22563;-78
2023/04/10 04:45:47;;;;;;;36.00;20.50;;;;;;;;;;110668;1274;22093;-78
2023/04/10 04:49:00;;;;;;;39.00;19.70;;;;;;;;;;110446;1259;22355;-78
2023/04/10 04:51:46;;;;;;;34.70;19.70;;;;;;;;;;110304;1277;22248;-77
2023/04/10 04:54:35;;;;;;;35.20;19.20;;;;;;;;;;110321;1277;22079;-78
2023/04/10 04:57:27;;;;;;;38.10;20.30;;;;;;;;;;110243;1277;22248;-78
2023/04/10 05:00:05;;;;;;;37.20;20.70;;;;;;;;;;110367;1256;22145;-79
2023/04/10 05:02:51;;;;;;;35.40;20.00;;;;;;;;;;110230;1277;22004;-78
2023/04/10 05:05:34;;;;;;;36.00;20.40;;;;;;;;;;110304;1277;22137;-78
2023/04/10 05:08:47;;;;;;;35.70;19.90;;;;;;;;;;110047;1270;22428;-78
2023/04/10 05:14:26;;;;;;;37.10;21.00;;;;;;;;;;110718;1269;22203;-81
2023/04/10 05:17:11;;;;;;;38.00;21.50;;;;;;;;;;110631;1274;22081;-78
2023/04/10 05:19:45;;;;;;;40.40;22.00;;;;;;;;;;110651;1251;22175;-78
2023/04/10 05:30:42;;;;;;;40.30;21.70;;;;;;;;;;110535;1256;22305;-78
2023/04/10 05:33:28;;;;;;;46.20;22.50;;;;;;;;;;110522;1275;22209;-78
2023/04/10 05:36:21;;;;;;;43.60;22.80;;;;;;;;;;110538;1275;22183;-77
2023/04/10 05:39:31;;;;;;;47.30;24.70;;;;;;;;;;110310;1275;22119;-78
2023/04/10 05:42:45;;;;;;;48.20;25.40;;;;;;;;;;110537;1259;22272;-78
2023/04/10 05:45:56;;;;;;;46.60;24.50;;;;;;;;;;110288;1275;22151;-78
2023/04/10 05:48:44;;;;;;;42.40;22.80;;;;;;;;;;110613;1276;22159;-78
2023/04/10 05:51:22;;;;;;;40.00;22.40;;;;;;;;;;110494;1258;22857;-78
2023/04/10 05:54:35;;;;;;;38.10;20.40;;;;;;;;;;110208;1280;22386;-77
2023/04/10 05:57:25;;;;;;;39.40;21.20;;;;;;;;;;110094;1280;22144;-77
2023/04/10 06:00:11;;;;;;;35.60;18.60;;;;;;;;;;110118;1280;23134;-79
2023/04/10 06:02:41;;;;;;;36.50;20.10;;;;;;;;;;110154;1262;22172;-77
2023/04/10 06:05:11;;;;;;;37.90;21.90;;;;;;;;;;110089;1280;22200;-77
2023/04/10 06:07:38;;;;;;;38.10;21.40;;;;;;;;;;110065;1280;23070;-78
2023/04/10 06:10:06;;;;;;;38.40;21.90;;;;;;;;;;110093;1280;22359;-77
2023/04/10 06:12:34;;;;;;;38.90;22.80;;;;;;;;;;110121;1261;23249;-78
2023/04/10 06:15:02;;;;;;;38.80;21.20;;;;;;;;;;110067;1280;22134;-77
2023/04/10 06:17:30;;;;;;;36.30;21.90;;;;;;;;;;110080;1280;22158;-78
2023/04/10 06:19:59;;;;;;;33.60;20.00;;;;;;;;;;110052;1280;22186;-78
2023/04/10 06:22:29;;;;;;;33.90;19.80;;;;;;;;;;110054;1262;22607;-78
2023/04/10 06:24:56;;;;;;;34.10;19.90;;;;;;;;;;110057;1280;22290;-78
2023/04/10 06:27:23;;;;;;;33.70;19.40;;;;;;;;;;110057;1281;22183;-77
2023/04/10 06:29:51;;;;;;;35.80;20.70;;;;;;;;;;110004;1280;22176;-78
2023/04/10 06:32:20;;;;;;;34.80;19.90;;;;;;;;;;110538;1256;22784;-78
2023/04/10 06:34:47;;;;;;;34.90;20.40;;;;;;;;;;110456;1276;22102;-78
2023/04/10 06:37:16;;;;;;;34.10;19.30;;;;;;;;;;110483;1276;22211;-78
2023/04/10 06:39:43;;;;;;;36.00;20.70;;;;;;;;;;110325;1275;22080;-78
2023/04/10 06:42:09;;;;;;;39.40;22.20;;;;;;;;;;110536;1259;22150;-78
2023/04/10 06:44:53;;;;;;;34.40;18.90;;;;;;;;;;110253;1268;22103;-78
2023/04/10 06:47:20;;;;;;;32.30;19.40;;;;;;;;;;110605;1275;22497;-78
2023/04/10 06:49:56;;;;;;;32.70;19.90;;;;;;;;;;110466;1275;22139;-78
2023/04/10 06:52:25;;;;;;;32.70;20.40;;;;;;;;;;110663;1257;22196;-78
2023/04/10 06:54:52;;;;;;;33.70;19.90;;;;;;;;;;110614;1276;22163;-78
2023/04/10 06:57:19;;;;;;;32.00;19.40;;;;;;;;;;110454;1276;22110;-78
2023/04/10 06:59:46;;;;;;;31.00;17.80;;;;;;;;;;110597;1276;22105;-78
2023/04/10 07:02:16;;;;;;;28.70;17.70;;;;;;;;;;110459;1254;21824;-78
2023/04/10 07:04:45;;;;;;;30.50;18.60;;;;;;;;;;110206;1275;23057;-78
2023/04/10 07:07:12;;;;;;;28.70;17.20;;;;;;;;;;110674;1275;22669;-79
2023/04/10 07:09:40;;;;;;;28.80;17.60;;;;;;;;;;110470;1276;22154;-77
2023/04/10 07:12:06;;;;;;;29.50;17.20;;;;;;;;;;110446;1276;22182;-78
2023/04/10 07:14:34;;;;;;;28.90;17.60;;;;;;;;;;110892;1256;22108;-77
2023/04/10 07:17:01;;;;;;;27.60;17.20;;;;;;;;;;110573;1276;22777;-77
2023/04/10 07:19:28;;;;;;;28.00;17.20;;;;;;;;;;110447;1276;22107;-77
2023/04/10 07:21:57;;;;;;;31.70;18.70;;;;;;;;;;110592;1276;22050;-77
2023/04/10 07:24:24;;;;;;;30.10;17.80;;;;;;;;;;110776;1259;22298;-77
2023/04/10 07:27:02;;;;;;;30.20;18.00;;;;;;;;;;110471;1276;22940;-77
2023/04/10 07:29:29;;;;;;;28.00;17.60;;;;;;;;;;110637;1276;22127;-78
2023/04/10 07:31:56;;;;;;;26.90;17.00;;;;;;;;;;110450;1276;22084;-77
2023/04/10 07:34:24;;;;;;;26.20;16.00;;;;;;;;;;110821;1259;22765;-77
2023/04/10 07:36:51;;;;;;;27.30;16.00;;;;;;;;;;110297;1277;22111;-77
2023/04/10 07:39:18;;;;;;;27.10;16.50;;;;;;;;;;110499;1277;22152;-78
2023/04/10 07:41:44;;;;;;;28.00;16.80;;;;;;;;;;110506;1277;22885;-77
2023/04/10 07:44:12;;;;;;;27.20;17.00;;;;;;;;;;110608;1259;22150;-77
2023/04/10 07:46:39;;;;;;;29.60;17.60;;;;;;;;;;110468;1276;22537;-77
2023/04/10 07:49:05;;;;;;;30.10;17.70;;;;;;;;;;110438;1276;22191;-77
2023/04/10 07:51:32;;;;;;;24.70;15.20;;;;;;;;;;110453;1276;22084;-77
2023/04/10 07:53:59;;;;;;;27.20;17.00;;;;;;;;;;110491;1260;22157;-77
2023/04/10 07:56:30;;;;;;;26.70;15.80;;;;;;;;;;110656;1276;22114;-77
2023/04/10 07:58:58;;;;;;;26.70;16.10;;;;;;;;;;110468;1276;22838;-77
2023/04/10 08:01:26;;;;;;;26.80;16.60;;;;;;;;;;110453;1276;22117;-77
2023/04/10 08:03:56;;;;;;;26.90;16.30;;;;;;;;;;110631;1259;22830;-77
2023/04/10 08:06:23;;;;;;;28.00;16.20;;;;;;;;;;110293;1277;22091;-77
2023/04/10 08:09:01;;;;;;;;;;;;;;;;;;;;;
2023/04/10 08:15:55;;;;;;;26.40;16.50;;;;;;;;;;110046;1266;22160;-77
2023/04/10 08:18:22;;;;;;;27.40;15.90;;;;;;;;;;110018;1283;21726;-78
2023/04/10 08:20:49;;;;;;;26.80;15.90;;;;;;;;;;110039;1283;22338;-78
2023/04/10 08:23:16;;;;;;;28.60;16.30;;;;;;;;;;110038;1283;22135;-79
2023/04/10 08:25:42;;;;;;;32.10;17.10;;;;;;;;;;110002;1265;22211;-77
2023/04/10 08:28:10;;;;;;;28.50;16.10;;;;;;;;;;109953;1284;22155;-78
2023/04/10 08:30:37;;;;;;;25.50;15.60;;;;;;;;;;109908;1283;22120;-77
2023/04/10 08:33:04;;;;;;;23.60;14.70;;;;;;;;;;110005;1283;22796;-78
2023/04/10 08:35:31;;;;;;;26.40;15.10;;;;;;;;;;109958;1262;22232;-77
2023/04/10 08:37:58;;;;;;;24.80;15.50;;;;;;;;;;109906;1284;23042;-78
2023/04/10 08:40:28;;;;;;;26.90;16.20;;;;;;;;;;109899;1284;22166;-78
2023/04/10 08:42:58;;;;;;;25.50;16.40;;;;;;;;;;110017;1279;22959;-78
2023/04/10 08:45:29;;;;;;;26.60;15.90;;;;;;;;;;110295;1262;22742;-78
2023/04/10 08:48:01;;;;;;;25.60;16.40;;;;;;;;;;110262;1279;22114;-78
2023/04/10 08:50:30;;;;;;;25.70;16.20;;;;;;;;;;110219;1279;22180;-78
2023/04/10 08:52:59;;;;;;;23.50;15.10;;;;;;;;;;110130;1280;22083;-77
2023/04/10 08:55:35;;;;;;;26.10;15.60;;;;;;;;;;110315;1264;22137;-77
2023/04/10 08:58:03;;;;;;;25.90;15.50;;;;;;;;;;110284;1279;22092;-77
2023/04/10 09:00:37;;;;;;;24.90;15.00;;;;;;;;;;110286;1279;22793;-77
2023/04/10 09:03:20;;;;;;;26.70;15.50;;;;;;;;;;110202;1279;22115;-78
2023/04/10 09:05:52;;;;;;;23.20;15.30;;;;;;;;;;110411;1261;22148;-77
2023/04/10 09:08:19;;;;;;;25.20;15.30;;;;;;;;;;110225;1280;22291;-77
2023/04/10 09:10:47;;;;;;;25.30;15.20;;;;;;;;;;110143;1280;22877;-77
2023/04/10 09:13:15;;;;;;;24.20;14.90;;;;;;;;;;110237;1277;22114;-79
2023/04/10 09:15:56;;;;;;;23.70;14.70;;;;;;;;;;110280;1262;22993;-78
2023/04/10 09:18:39;;;;;;;24.30;15.10;;;;;;;;;;110299;1279;22100;-77
2023/04/10 09:21:07;;;;;;;25.90;15.70;;;;;;;;;;110105;1279;22114;-78
2023/04/10 09:23:35;;;;;;;23.50;14.90;;;;;;;;;;110263;1279;22144;-77
2023/04/10 09:26:22;;;;;;;21.00;13.50;;;;;;;;;;110251;1262;22168;-78
2023/04/10 09:29:11;;;;;;;21.40;13.70;;;;;;;;;;110218;1280;22178;-79
2023/04/10 09:31:41;;;;;;;20.80;12.50;;;;;;;;;;110092;1279;22124;-79
2023/04/10 09:34:09;;;;;;;20.90;12.80;;;;;;;;;;110288;1279;22090;-79
2023/04/10 09:36:40;;;;;;;22.30;13.50;;;;;;;;;;110515;1269;22173;-78
2023/04/10 09:39:08;;;;;;;21.20;12.80;;;;;;;;;;110423;1278;22282;-78
2023/04/10 09:41:57;;;;;;;22.30;13.40;;;;;;;;;;110271;1278;22850;-79
2023/04/10 09:44:30;;;;;;;22.60;13.60;;;;;;;;;;110446;1278;22087;-79
2023/04/10 09:47:21;;;;;;;22.20;13.60;;;;;;;;;;110442;1260;22809;-79
2023/04/10 09:49:53;;;;;;;25.00;13.60;;;;;;;;;;110145;1279;22486;-79
2023/04/10 09:52:27;;;;;;;20.90;13.30;;;;;;;;;;110107;1278;22112;-79
2023/04/10 09:54:59;;;;;;;23.10;14.50;;;;;;;;;;110220;1279;22093;-78
2023/04/10 09:57:29;;;;;;;23.60;15.30;;;;;;;;;;110610;1259;22779;-79
2023/04/10 10:00:01;;;;;;;21.60;12.90;;;;;;;;;;110241;1278;22093;-76
2023/04/10 10:02:37;;;;;;;21.70;13.90;;;;;;;;;;110249;1278;22604;-78
2023/04/10 10:05:05;;;;;;;22.00;14.30;;;;;;;;;;110204;1278;22109;-76
2023/04/10 10:07:33;;;;;;;21.00;13.30;;;;;;;;;;110360;1258;22388;-76
2023/04/10 10:10:02;;;;;;;23.20;13.70;;;;;;;;;;110413;1278;22115;-77
2023/04/10 10:12:36;;;;;;;21.40;13.00;;;;;;;;;;110386;1278;22294;-77
2023/04/10 10:15:15;;;;;;;20.80;13.40;;;;;;;;;;110161;1278;22115;-77
2023/04/10 10:17:47;;;;;;;19.90;12.20;;;;;;;;;;110328;1258;22472;-78
2023/04/10 10:20:17;;;;;;;22.00;14.00;;;;;;;;;;110294;1279;22098;-76
2023/04/10 10:22:45;;;;;;;20.80;13.60;;;;;;;;;;110175;1279;22111;-77
2023/04/10 10:25:14;;;;;;;22.20;14.00;;;;;;;;;;110138;1279;22990;-77
2023/04/10 10:27:44;;;;;;;20.40;13.70;;;;;;;;;;110340;1262;22134;-77
2023/04/10 10:30:13;;;;;;;23.50;14.80;;;;;;;;;;110321;1278;22091;-76
2023/04/10 10:32:46;;;;;;;25.50;16.60;;;;;;;;;;110325;1278;22128;-77
2023/04/10 10:35:16;;;;;;;27.10;16.80;;;;;;;;;;110159;1278;22889;-76
2023/04/10 10:37:46;;;;;;;25.10;16.90;;;;;;;;;;110421;1257;22203;-76
2023/04/10 10:40:22;;;;;;;23.20;15.40;;;;;;;;;;110259;1279;22185;-76
2023/04/10 10:43:04;;;;;;;24.90;15.40;;;;;;;;;;110140;1279;21992;-76
2023/04/10 10:45:40;;;;;;;22.70;14.70;;;;;;;;;;110126;1279;22129;-76
2023/04/10 10:48:10;;;;;;;25.20;16.10;;;;;;;;;;110314;1258;21965;-77
2023/04/10 10:50:58;;;;;;;24.10;15.50;;;;;;;;;;110339;1278;22114;-76
2023/04/10 10:53:52;;;;;;;25.60;16.40;;;;;;;;;;110317;1274;22155;-76
2023/04/10 10:56:41;;;;;;;24.80;16.70;;;;;;;;;;110316;1278;22091;-78
2023/04/10 10:59:11;;;;;;;27.30;17.50;;;;;;;;;;110349;1262;22868;-77
2023/04/10 11:01:58;;;;;;;29.10;18.20;;;;;;;;;;110121;1279;22116;-78
2023/04/10 11:04:48;;;;;;;26.80;17.80;;;;;;;;;;110262;1279;22099;-77
2023/04/10 11:07:18;;;;;;;28.90;18.30;;;;;;;;;;110267;1257;22249;-78
2023/04/10 11:09:49;;;;;;;27.70;17.90;;;;;;;;;;110143;1278;22808;-78
2023/04/10 11:12:26;;;;;;;24.60;17.30;;;;;;;;;;110329;1278;22935;-77
2023/04/10 11:14:59;;;;;;;26.90;17.20;;;;;;;;;;110148;1278;22108;-77
2023/04/10 11:17:47;;;;;;;26.10;17.60;;;;;;;;;;110124;1257;22143;-77
2023/04/10 11:20:20;;;;;;;25.40;16.60;;;;;;;;;;110270;1279;22135;-76
2023/04/10 11:23:09;;;;;;;27.40;17.70;;;;;;;;;;110114;1270;22117;-76
2023/04/10 11:32:53;;;;;;;25.50;16.90;;;;;;;;;;103873;1293;549092;-82
2023/04/10 11:35:20;;;;;;;24.70;16.70;;;;;;;;;;106424;1285;22715;-79
2023/04/10 11:37:46;;;;;;;27.80;18.40;;;;;;;;;;106497;1285;22537;-77
2023/04/10 11:40:13;;;;;;;23.80;16.50;;;;;;;;;;106314;1285;22671;-79
2023/04/10 11:42:39;;;;;;;24.40;16.20;;;;;;;;;;106073;1271;22603;-78
2023/04/10 11:45:25;;;;;;;23.20;16.00;;;;;;;;;;104395;1284;2617529;-77
2023/04/10 11:47:52;;;;;;;23.00;15.10;;;;;;;;;;106254;1272;22580;-77
2023/04/10 11:50:19;;;;;;;22.70;14.90;;;;;;;;;;106520;1284;22540;-81
2023/04/10 11:52:48;;;;;;;24.60;16.70;;;;;;;;;;106314;1266;22532;-79
2023/04/10 11:55:15;;;;;;;23.10;15.80;;;;;;;;;;106449;1273;24269;-83
2023/04/10 11:57:43;;;;;;;23.30;16.10;;;;;;;;;;106321;1283;24756;-82
2023/04/10 12:00:09;;;;;;;23.90;15.90;;;;;;;;;;106478;1283;24831;-78
2023/04/10 12:02:48;;;;;;;24.70;16.30;;;;;;;;;;106402;1281;25655;-76
2023/04/10 12:05:14;;;;;;;24.90;16.50;;;;;;;;;;106414;1281;22533;-82
2023/04/10 12:07:41;;;;;;;20.20;13.90;;;;;;;;;;106396;1284;25345;-79
2023/04/10 12:10:08;;;;;;;23.30;15.60;;;;;;;;;;106332;1284;25294;-76
2023/04/10 12:12:37;;;;;;;22.30;15.80;;;;;;;;;;106229;1264;22675;-80
2023/04/10 12:15:22;;;;;;;22.00;14.90;;;;;;;;;;106378;1283;25484;-78
2023/04/10 12:17:48;;;;;;;20.00;13.60;;;;;;;;;;106445;1283;22533;-76
2023/04/10 12:20:15;;;;;;;22.30;15.00;;;;;;;;;;106436;1283;25408;-80
2023/04/10 12:22:43;;;;;;;20.30;13.60;;;;;;;;;;106408;1283;23276;-80
2023/04/10 12:25:10;;;;;;;20.20;14.10;;;;;;;;;;106411;1284;24210;-79
2023/04/10 12:27:37;;;;;;;21.40;14.00;;;;;;;;;;106286;1284;23340;-78
2023/04/10 12:30:09;;;;;;;20.60;14.10;;;;;;;;;;106316;1281;22645;-83
2023/04/10 12:32:35;;;;;;;19.50;13.10;;;;;;;;;;106691;1261;22498;-83
2023/04/10 12:35:01;;;;;;;20.30;12.90;;;;;;;;;;106337;1283;23003;-81
2023/04/10 12:37:46;;;;;;;19.40;13.80;;;;;;;;;;106410;1283;22608;-81
2023/04/10 12:40:12;;;;;;;18.00;11.70;;;;;;;;;;106458;1283;22533;-80
2023/04/10 12:42:41;;;;;;;20.90;13.60;;;;;;;;;;106386;1262;22956;-81
2023/04/10 12:45:11;;;;;;;19.50;12.60;;;;;;;;;;106380;1284;22678;-78
2023/04/10 12:47:45;;;;;;;17.20;11.10;;;;;;;;;;106443;1285;22629;-83
2023/04/10 12:50:13;;;;;;;18.50;12.30;;;;;;;;;;106431;1285;24190;-75
2023/04/10 12:52:40;;;;;;;17.20;10.80;;;;;;;;;;106313;1285;24379;-76
2023/04/10 12:55:08;;;;;;;18.50;12.90;;;;;;;;;;106191;1284;22530;-75
2023/04/10 12:57:35;;;;;;;19.50;12.70;;;;;;;;;;106406;1283;22531;-76
2023/04/10 13:00:02;;;;;;;36.80;24.10;;;;;;;;;;106374;1283;22617;-81
2023/04/10 13:02:28;;;;;;;19.50;12.30;;;;;;;;;;106413;1283;22541;-80
2023/04/10 13:05:01;;;;;;;17.80;12.10;;;;;;;;;;106320;1266;25299;-78
2023/04/10 13:07:37;;;;;;;18.50;12.00;;;;;;;;;;106102;1285;25597;-77
2023/04/10 13:10:04;;;;;;;17.50;11.00;;;;;;;;;;106374;1284;22547;-76
2023/04/10 13:12:33;;;;;;;18.80;12.60;;;;;;;;;;106462;1284;25290;-80
2023/04/10 13:15:00;;;;;;;18.10;11.50;;;;;;;;;;106386;1284;22655;-80
2023/04/10 13:17:27;;;;;;;16.10;10.50;;;;;;;;;;107156;1275;22526;-77
2023/04/10 13:19:53;;;;;;;16.40;10.90;;;;;;;;;;107078;1275;25303;-81
2023/04/10 13:22:20;;;;;;;18.20;11.90;;;;;;;;;;107102;1274;22514;-77
2023/04/10 13:24:46;;;;;;;22.10;14.90;;;;;;;;;;106874;1259;22552;-76
2023/04/10 13:27:12;;;;;;;18.90;13.00;;;;;;;;;;106893;1277;25298;-80
2023/04/10 13:29:40;;;;;;;19.50;12.60;;;;;;;;;;106856;1278;25687;-82
2023/04/10 13:32:06;;;;;;;17.90;12.00;;;;;;;;;;106870;1278;22528;-78
2023/04/10 13:34:33;;;;;;;21.10;13.80;;;;;;;;;;106997;1258;22632;-84
2023/04/10 13:37:25;;;;;;;14.90;10.00;;;;;;;;;;106933;1276;22527;-78
2023/04/10 13:39:51;;;;;;;14.10;8.70;;;;;;;;;;106932;1276;24209;-76
2023/04/10 13:42:17;;;;;;;15.60;9.70;;;;;;;;;;106871;1276;22517;-76
2023/04/10 13:44:43;;;;;;;16.20;10.30;;;;;;;;;;107008;1271;22614;-77
2023/04/10 13:47:09;;;;;;;16.40;10.50;;;;;;;;;;106824;1279;22502;-78
2023/04/10 13:49:35;;;;;;;17.70;11.20;;;;;;;;;;106728;1279;25451;-79
2023/04/10 13:52:01;;;;;;;17.50;11.50;;;;;;;;;;106835;1279;22673;-80
2023/04/10 13:54:27;;;;;;;22.80;14.70;;;;;;;;;;106654;1259;22525;-84
2023/04/10 13:56:53;;;;;;;20.60;13.20;;;;;;;;;;106822;1278;24274;-83
2023/04/10 13:59:19;;;;;;;21.50;13.20;;;;;;;;;;106818;1278;22530;-78
2023/04/10 14:01:46;;;;;;;20.60;14.30;;;;;;;;;;106838;1267;25359;-78
2023/04/10 14:04:12;;;;;;;21.50;14.00;;;;;;;;;;107050;1278;25570;-76
2023/04/10 14:06:39;;;;;;;22.40;14.00;;;;;;;;;;106816;1278;24202;-79
2023/04/10 14:09:05;;;;;;;19.00;13.20;;;;;;;;;;106857;1278;23495;-78
2023/04/10 14:11:32;;;;;;;20.20;13.50;;;;;;;;;;106827;1278;24098;-83
2023/04/10 14:13:58;;;;;;;20.70;13.30;;;;;;;;;;106814;1278;24214;-81
2023/04/10 14:20:19;;;;;;;21.00;14.10;;;;;;;;;;106381;1284;25378;-79
2023/04/10 14:22:46;;;;;;;19.30;13.70;;;;;;;;;;106310;1284;24181;-81
2023/04/10 14:25:14;;;;;;;21.20;13.70;;;;;;;;;;106420;1262;25435;-79
2023/04/10 14:31:42;;;;;;;19.20;13.00;;;;;;;;;;106660;1278;22526;-82
2023/04/10 14:34:08;;;;;;;20.30;14.30;;;;;;;;;;106721;1277;22575;-78
2023/04/10 14:36:34;;;;;;;20.50;13.80;;;;;;;;;;106395;1263;22576;-75
2023/04/10 14:39:00;;;;;;;20.90;14.60;;;;;;;;;;106755;1266;25227;-81
2023/04/10 14:41:27;;;;;;;19.40;13.20;;;;;;;;;;106852;1277;26493;-77
2023/04/10 14:43:53;;;;;;;20.50;13.40;;;;;;;;;;106852;1277;24249;-77
2023/04/10 14:46:19;;;;;;;20.00;13.30;;;;;;;;;;106851;1261;23849;-81
2023/04/10 14:48:46;;;;;;;20.10;13.00;;;;;;;;;;106890;1277;22519;-84
2023/04/10 14:51:12;;;;;;;18.90;12.60;;;;;;;;;;106883;1277;22996;-82
2023/04/10 14:53:38;;;;;;;18.90;12.60;;;;;;;;;;106898;1277;22543;-83
2023/04/10 14:56:11;;;;;;;17.80;12.00;;;;;;;;;;106838;1277;24189;-83
2023/04/10 14:58:41;;;;;;;18.60;12.40;;;;;;;;;;106714;1277;22523;-80
2023/04/10 15:01:08;;;;;;;19.20;12.10;;;;;;;;;;106841;1278;22759;-79
2023/04/10 15:03:34;;;;;;;18.10;11.90;;;;;;;;;;106819;1278;22492;-83
2023/04/10 15:06:00;;;;;;;18.20;11.80;;;;;;;;;;106831;1259;22646;-81
2023/04/10 15:08:26;;;;;;;18.90;13.00;;;;;;;;;;106856;1277;24445;-78
2023/04/10 15:10:53;;;;;;;19.60;12.60;;;;;;;;;;106862;1277;25274;-76
2023/04/10 15:13:20;;;;;;;19.50;13.50;;;;;;;;;;106858;1277;22737;-77
2023/04/10 15:15:47;;;;;;;19.10;13.00;;;;;;;;;;106867;1254;22522;-78
2023/04/10 15:18:14;;;;;;;19.50;12.90;;;;;;;;;;106864;1277;25243;-80
2023/04/10 15:20:41;;;;;;;19.10;12.80;;;;;;;;;;106850;1277;22530;-83
2023/04/10 15:23:07;;;;;;;19.30;12.90;;;;;;;;;;106867;1277;24173;-79
2023/04/10 15:25:34;;;;;;;19.60;13.30;;;;;;;;;;106876;1277;23201;-78
2023/04/10 15:28:00;;;;;;;19.50;12.80;;;;;;;;;;106874;1258;24264;-76
2023/04/10 15:30:26;;;;;;;19.50;12.40;;;;;;;;;;106871;1277;22540;-83
2023/04/10 15:32:52;;;;;;;19.50;12.60;;;;;;;;;;107141;1275;22539;-84
2023/04/10 15:35:19;;;;;;;17.10;11.00;;;;;;;;;;106957;1275;22547;-76
2023/04/10 15:37:46;;;;;;;17.00;10.70;;;;;;;;;;107135;1260;22669;-80
2023/04/10 15:40:12;;;;;;;15.60;9.90;;;;;;;;;;106926;1275;25255;-80
2023/04/10 15:42:38;;;;;;;17.90;9.80;;;;;;;;;;106934;1275;22542;-78
2023/04/10 15:45:05;;;;;;;14.40;8.80;;;;;;;;;;107124;1275;22633;-82